Time;durP1;ratioP1;P1;durP2;ratioP2;P2;SDS_P1;SDS_P2;PMS_P1;PMS_P2;Temp;Humidity;BMP_temperature;BMP_pressure;BME280_temperature;BME280_humidity;BME280_pressure;Samples;Min_cycle;Max_cycle;Signal;HPM_P1;HPM_P2
2022/03/09 00:02:31;;;;;;;20.87;10.77;;;5.40;99.90;;;;;;5000705;28;20394;-77
2022/03/09 00:05:20;;;;;;;19.80;10.60;;;5.40;99.90;;;;;;5002408;28;20225;-76
2022/03/09 00:08:10;;;;;;;21.37;10.93;;;5.50;99.90;;;;;;4980808;28;20228;-76
2022/03/09 00:10:58;;;;;;;25.27;11.57;;;5.50;99.90;;;;;;5001531;28;20221;-76
2022/03/09 00:13:47;;;;;;;22.07;10.60;;;5.50;99.90;;;;;;4994904;28;20943;-76
2022/03/09 00:16:37;;;;;;;24.00;11.70;;;5.60;99.90;;;;;;5017562;28;20352;-76
2022/03/09 00:19:30;;;;;;;23.90;11.77;;;5.50;99.90;;;;;;5001770;28;20740;-76
2022/03/09 00:22:18;;;;;;;21.13;11.53;;;5.50;99.90;;;;;;4999780;28;20222;-76
2022/03/09 00:25:09;;;;;;;26.60;12.07;;;5.50;99.90;;;;;;5000872;28;20339;-76
2022/03/09 00:27:58;;;;;;;21.47;11.00;;;5.50;99.90;;;;;;5015663;28;20240;-76
2022/03/09 00:30:46;;;;;;;20.33;10.97;;;5.50;99.90;;;;;;5015979;28;20236;-76
2022/03/09 00:33:39;;;;;;;21.90;11.30;;;5.50;99.90;;;;;;5003887;28;20228;-76
2022/03/09 00:36:28;;;;;;;23.67;11.37;;;5.50;99.90;;;;;;5015399;28;20225;-76
2022/03/09 00:39:16;;;;;;;25.43;11.10;;;5.50;99.90;;;;;;5000922;28;20217;-76
2022/03/09 00:42:06;;;;;;;23.13;11.17;;;5.50;99.90;;;;;;5011575;28;20566;-77
2022/03/09 00:44:58;;;;;;;24.03;10.97;;;5.40;99.90;;;;;;5002556;28;20375;-78
2022/03/09 00:47:47;;;;;;;24.43;11.73;;;5.40;99.90;;;;;;5002028;28;20252;-79
2022/03/09 00:50:36;;;;;;;20.90;11.23;;;5.50;99.90;;;;;;5014485;28;20229;-78
2022/03/09 00:53:24;;;;;;;26.90;11.73;;;5.50;99.90;;;;;;5019449;28;20224;-78
2022/03/09 00:56:14;;;;;;;22.73;11.53;;;5.50;99.90;;;;;;5022251;28;20220;-78
2022/03/09 00:59:04;;;;;;;21.53;11.60;;;5.50;99.90;;;;;;5021126;28;20320;-77
2022/03/09 01:01:52;;;;;;;24.93;11.10;;;5.50;99.90;;;;;;5025560;28;20247;-78
2022/03/09 01:04:41;;;;;;;20.13;11.27;;;5.50;99.90;;;;;;5033316;28;20247;-78
2022/03/09 01:07:30;;;;;;;22.17;11.17;;;5.50;99.90;;;;;;5034188;28;20225;-77
2022/03/09 01:10:18;;;;;;;20.17;10.83;;;5.60;99.90;;;;;;5039011;28;20572;-78
2022/03/09 01:13:08;;;;;;;23.20;11.43;;;5.50;99.90;;;;;;5034379;28;20231;-78
2022/03/09 01:15:57;;;;;;;20.77;10.83;;;5.50;99.90;;;;;;5027393;28;20260;-78
2022/03/09 01:18:46;;;;;;;19.73;10.73;;;5.50;99.90;;;;;;5020313;28;20794;-77
2022/03/09 01:21:35;;;;;;;20.43;11.37;;;5.50;99.90;;;;;;5020149;28;20786;-77
2022/03/09 01:24:24;;;;;;;20.13;10.77;;;5.50;99.90;;;;;;5023470;28;20706;-79
2022/03/09 01:27:13;;;;;;;24.67;11.80;;;5.50;99.90;;;;;;5043143;28;20259;-79
2022/03/09 01:30:01;;;;;;;17.97;10.43;;;5.50;99.90;;;;;;5018042;28;20523;-78
2022/03/09 01:32:52;;;;;;;21.63;11.13;;;5.60;99.90;;;;;;5023706;28;20307;-79
2022/03/09 01:35:41;;;;;;;21.43;11.50;;;5.50;99.90;;;;;;5022858;28;20235;-79
2022/03/09 01:38:29;;;;;;;21.77;11.00;;;5.60;99.90;;;;;;5021113;28;20706;-79
2022/03/09 01:41:19;;;;;;;29.63;11.73;;;5.50;99.90;;;;;;5020035;28;20217;-78
2022/03/09 01:44:09;;;;;;;23.20;11.50;;;5.50;99.90;;;;;;5032671;28;20236;-79
2022/03/09 01:46:58;;;;;;;22.73;10.97;;;5.50;99.90;;;;;;5041066;28;20958;-79
2022/03/09 01:49:48;;;;;;;22.70;12.03;;;5.50;99.90;;;;;;5018208;28;20236;-78
2022/03/09 01:52:37;;;;;;;19.87;10.87;;;5.50;99.90;;;;;;5032981;28;20230;-79
2022/03/09 01:55:26;;;;;;;25.80;11.03;;;5.50;99.90;;;;;;5019278;28;20733;-80
2022/03/09 01:58:20;;;;;;;22.40;11.20;;;5.60;99.90;;;;;;5039117;28;20228;-80
2022/03/09 02:01:08;;;;;;;23.63;10.77;;;5.50;99.90;;;;;;5018070;28;20228;-77
2022/03/09 02:03:58;;;;;;;20.93;10.73;;;5.60;99.90;;;;;;5035366;28;20241;-79
2022/03/09 02:06:49;;;;;;;22.60;11.20;;;5.60;99.90;;;;;;5025795;28;20217;-79
2022/03/09 02:09:44;;;;;;;20.83;10.93;;;5.50;99.90;;;;;;5025728;28;20219;-78
2022/03/09 02:12:33;;;;;;;21.73;11.27;;;5.50;99.90;;;;;;5025637;28;20266;-79
2022/03/09 02:15:22;;;;;;;19.63;10.67;;;5.50;99.90;;;;;;5026923;28;20224;-79
2022/03/09 02:18:11;;;;;;;22.63;11.47;;;5.50;99.90;;;;;;5038975;28;20234;-79
2022/03/09 02:21:02;;;;;;;20.37;11.03;;;5.40;99.90;;;;;;5030915;28;20230;-80
2022/03/09 02:23:55;;;;;;;23.60;11.50;;;5.40;99.90;;;;;;5025383;28;20742;-79
2022/03/09 02:26:44;;;;;;;21.50;11.67;;;5.50;99.90;;;;;;5024593;28;20247;-79
2022/03/09 02:29:32;;;;;;;20.20;11.10;;;5.40;99.90;;;;;;5027443;28;20723;-79
2022/03/09 02:32:22;;;;;;;22.07;10.87;;;5.40;99.90;;;;;;5026894;28;20230;-78
2022/03/09 02:35:13;;;;;;;23.53;11.33;;;5.40;99.90;;;;;;5028509;28;20221;-78
2022/03/09 02:38:01;;;;;;;21.03;10.93;;;5.40;99.90;;;;;;5026667;28;20223;-77
2022/03/09 02:40:51;;;;;;;20.73;11.30;;;5.40;99.90;;;;;;5020231;28;20232;-76
2022/03/09 02:43:40;;;;;;;25.17;11.17;;;5.50;99.90;;;;;;5023631;28;20231;-77
2022/03/09 02:46:30;;;;;;;20.67;10.77;;;5.50;99.90;;;;;;5036075;28;20236;-77
2022/03/09 02:49:19;;;;;;;24.53;11.53;;;5.50;99.90;;;;;;5023191;28;20242;-77
2022/03/09 02:52:07;;;;;;;21.17;11.23;;;5.40;99.90;;;;;;5023982;28;20225;-76
2022/03/09 02:54:56;;;;;;;21.10;11.37;;;5.50;99.90;;;;;;5027310;28;20220;-78
2022/03/09 02:57:49;;;;;;;18.47;10.17;;;5.50;99.90;;;;;;5037163;28;20235;-76
2022/03/09 03:00:41;;;;;;;18.73;10.17;;;5.50;99.90;;;;;;5026460;28;20238;-76
2022/03/09 03:03:29;;;;;;;23.50;12.87;;;5.50;99.90;;;;;;5040536;28;20917;-77
2022/03/09 03:06:18;;;;;;;20.37;10.47;;;5.40;99.90;;;;;;5025492;28;20236;-77
2022/03/09 03:09:07;;;;;;;19.07;10.47;;;5.40;99.90;;;;;;5028828;28;20225;-77
2022/03/09 03:11:55;;;;;;;19.57;10.17;;;5.50;99.90;;;;;;5028708;28;20220;-77
2022/03/09 03:14:45;;;;;;;17.40;9.97;;;5.60;99.90;;;;;;5028590;28;20233;-77
2022/03/09 03:17:37;;;;;;;21.70;10.87;;;5.50;99.90;;;;;;5029311;28;20266;-77
2022/03/09 03:20:25;;;;;;;20.30;10.80;;;5.50;99.90;;;;;;5029859;28;20220;-77
2022/03/09 03:23:14;;;;;;;21.17;10.47;;;5.50;99.90;;;;;;5041977;28;20229;-77
2022/03/09 03:26:05;;;;;;;20.60;10.80;;;5.50;99.90;;;;;;5024564;28;20240;-79
2022/03/09 03:28:54;;;;;;;20.13;10.47;;;5.50;99.90;;;;;;5026281;28;20246;-77
2022/03/09 03:31:45;;;;;;;18.57;10.60;;;5.50;99.90;;;;;;5026383;28;20252;-78
2022/03/09 03:34:39;;;;;;;18.10;9.77;;;5.50;99.90;;;;;;5042075;28;20216;-77
2022/03/09 03:37:28;;;;;;;19.23;9.77;;;5.50;99.90;;;;;;5020769;28;20254;-77
2022/03/09 03:40:17;;;;;;;20.70;10.20;;;5.50;99.90;;;;;;5023476;28;20220;-78
2022/03/09 03:43:06;;;;;;;20.50;9.77;;;5.50;99.90;;;;;;5038376;28;20576;-76
2022/03/09 03:45:55;;;;;;;20.73;10.40;;;5.50;99.90;;;;;;5024437;28;20221;-77
2022/03/09 03:48:45;;;;;;;17.50;10.03;;;5.50;99.90;;;;;;5027676;28;20228;-79
2022/03/09 03:51:34;;;;;;;22.53;10.97;;;5.50;99.90;;;;;;5022027;28;20243;-77
2022/03/09 03:54:22;;;;;;;21.50;10.57;;;5.50;99.90;;;;;;5038171;28;20946;-77
2022/03/09 03:57:11;;;;;;;20.90;10.40;;;5.40;99.90;;;;;;5021260;28;20224;-77
2022/03/09 04:00:00;;;;;;;21.97;10.03;;;5.40;99.90;;;;;;5038396;28;20221;-77
2022/03/09 04:02:48;;;;;;;18.97;10.43;;;5.40;99.90;;;;;;5038935;28;20258;-77
2022/03/09 04:05:38;;;;;;;19.50;10.27;;;5.50;99.90;;;;;;5031924;28;20337;-79
2022/03/09 04:08:27;;;;;;;19.27;10.30;;;5.50;99.90;;;;;;5022181;28;20242;-78
2022/03/09 04:11:16;;;;;;;20.10;11.87;;;5.40;99.90;;;;;;5040776;28;20224;-77
2022/03/09 04:14:05;;;;;;;20.10;10.73;;;5.40;99.90;;;;;;5044668;28;20226;-78
2022/03/09 04:16:53;;;;;;;22.57;11.30;;;5.50;99.90;;;;;;5029016;28;20216;-78
2022/03/09 04:19:42;;;;;;;18.87;10.73;;;5.40;99.90;;;;;;5037815;28;20244;-78
2022/03/09 04:22:32;;;;;;;22.77;11.17;;;5.40;99.90;;;;;;5025433;28;20604;-77
2022/03/09 04:25:21;;;;;;;21.40;11.50;;;5.40;99.90;;;;;;5025247;28;20231;-77
2022/03/09 04:28:09;;;;;;;21.33;12.47;;;5.50;99.90;;;;;;5036933;28;20270;-76
2022/03/09 04:30:58;;;;;;;21.60;11.87;;;5.40;99.90;;;;;;5040429;28;20228;-80
2022/03/09 04:33:47;;;;;;;19.20;10.93;;;5.50;99.90;;;;;;5041862;28;20231;-78
2022/03/09 04:36:36;;;;;;;20.17;10.83;;;5.40;99.90;;;;;;5034896;28;20278;-78
2022/03/09 04:39:28;;;;;;;22.53;11.37;;;5.30;99.90;;;;;;5025222;28;20509;-76
2022/03/09 04:42:17;;;;;;;20.57;10.93;;;5.30;99.90;;;;;;5025580;28;20223;-78
2022/03/09 04:45:07;;;;;;;19.83;10.43;;;5.40;99.90;;;;;;5038954;28;20671;-77
2022/03/09 04:47:59;;;;;;;22.80;11.20;;;5.40;99.90;;;;;;5018514;28;20723;-79
2022/03/09 04:50:48;;;;;;;25.63;12.37;;;5.30;99.90;;;;;;5026559;28;20240;-79
2022/03/09 04:53:37;;;;;;;25.67;12.27;;;5.30;99.90;;;;;;5025189;28;20675;-80
2022/03/09 04:56:27;;;;;;;24.70;11.80;;;5.40;99.90;;;;;;5024123;28;20332;-79
2022/03/09 04:59:17;;;;;;;21.93;11.73;;;5.50;99.90;;;;;;5028456;28;20231;-80
2022/03/09 05:02:05;;;;;;;22.60;11.87;;;5.50;99.90;;;;;;5025384;28;20227;-78
2022/03/09 05:04:54;;;;;;;27.53;11.57;;;5.50;99.90;;;;;;5027506;28;20223;-78
2022/03/09 05:07:43;;;;;;;24.10;12.33;;;5.50;99.90;;;;;;5039806;28;20221;-79
2022/03/09 05:10:31;;;;;;;21.63;12.00;;;5.50;99.90;;;;;;5038632;28;20224;-78
2022/03/09 05:13:21;;;;;;;23.97;11.87;;;5.50;99.90;;;;;;5023469;28;20216;-78
2022/03/09 05:16:10;;;;;;;21.27;11.80;;;5.50;99.90;;;;;;5028661;28;20220;-78
2022/03/09 05:18:59;;;;;;;23.97;11.83;;;5.50;99.90;;;;;;5037099;28;20231;-78
2022/03/09 05:21:48;;;;;;;20.60;11.47;;;5.60;99.90;;;;;;5020994;28;20589;-78
2022/03/09 05:24:57;;;;;;;20.83;11.50;;;5.50;99.90;;;;;;5026755;28;20271;-78
2022/03/09 05:27:46;;;;;;;24.67;12.93;;;5.50;99.90;;;;;;5017070;28;20224;-76
2022/03/09 05:30:36;;;;;;;20.27;11.77;;;5.40;99.90;;;;;;5023654;28;20216;-77
2022/03/09 05:33:27;;;;;;;24.53;11.97;;;5.50;99.90;;;;;;5023859;28;20228;-79
2022/03/09 05:36:16;;;;;;;21.00;11.17;;;5.60;99.90;;;;;;5022896;28;20223;-71
2022/03/09 05:39:04;;;;;;;19.80;11.17;;;5.50;99.90;;;;;;5022507;28;20247;-72
2022/03/09 05:41:53;;;;;;;20.10;10.53;;;5.60;99.90;;;;;;5018521;28;20327;-70
2022/03/09 05:44:42;;;;;;;20.87;10.83;;;5.50;99.90;;;;;;5033704;28;20748;-73
2022/03/09 05:47:32;;;;;;;21.60;10.30;;;5.40;99.90;;;;;;5036903;28;20311;-71
2022/03/09 05:50:21;;;;;;;23.70;11.53;;;5.50;99.90;;;;;;5037160;28;20319;-71
2022/03/09 05:53:09;;;;;;;21.20;10.30;;;5.50;99.90;;;;;;5010016;28;20229;-72
2022/03/09 05:55:58;;;;;;;20.63;11.17;;;5.50;99.90;;;;;;5013409;28;20244;-71
2022/03/09 05:58:47;;;;;;;21.37;10.87;;;5.50;99.90;;;;;;5003476;28;20241;-71
2022/03/09 06:01:38;;;;;;;24.97;11.63;;;5.50;99.90;;;;;;5008979;28;20679;-71
2022/03/09 06:04:27;;;;;;;23.67;11.57;;;5.50;99.90;;;;;;5005351;28;20232;-71
2022/03/09 06:07:16;;;;;;;23.07;10.60;;;5.70;99.90;;;;;;5004090;28;20220;-72
2022/03/09 06:10:06;;;;;;;22.70;10.97;;;5.60;99.90;;;;;;5021545;28;20238;-71
2022/03/09 06:12:54;;;;;;;21.67;10.30;;;5.60;99.90;;;;;;5007155;28;20224;-72
2022/03/09 06:15:44;;;;;;;21.30;11.57;;;5.70;99.90;;;;;;5003150;28;20591;-73
2022/03/09 06:18:33;;;;;;;20.87;10.43;;;5.80;99.90;;;;;;5004771;28;20240;-72
2022/03/09 06:21:23;;;;;;;21.97;10.23;;;5.80;99.90;;;;;;5019295;28;20217;-72
2022/03/09 06:24:16;;;;;;;26.60;12.03;;;5.80;99.90;;;;;;5000476;28;20273;-72
2022/03/09 06:27:05;;;;;;;20.70;10.13;;;5.80;99.90;;;;;;4998208;28;20217;-72
2022/03/09 06:29:55;;;;;;;20.70;10.07;;;5.80;99.90;;;;;;5008765;28;20224;-71
2022/03/09 06:32:46;;;;;;;23.77;10.97;;;5.90;99.90;;;;;;5005057;28;20222;-73
2022/03/09 06:35:34;;;;;;;19.40;9.87;;;5.90;99.90;;;;;;5021744;28;20241;-73
2022/03/09 06:38:24;;;;;;;21.27;10.33;;;6.00;99.90;;;;;;5016538;28;20226;-73
2022/03/09 06:41:13;;;;;;;19.20;10.47;;;6.00;99.90;;;;;;5021570;28;20221;-75
2022/03/09 06:44:02;;;;;;;20.53;9.87;;;5.90;99.90;;;;;;5006313;28;20233;-74
2022/03/09 06:46:51;;;;;;;21.20;10.90;;;6.00;99.90;;;;;;5019197;28;20229;-75
2022/03/09 06:49:39;;;;;;;18.77;10.00;;;6.10;99.90;;;;;;5002317;28;20711;-70
2022/03/09 06:52:29;;;;;;;19.47;9.40;;;6.20;99.90;;;;;;5007541;28;20251;-73
2022/03/09 06:55:18;;;;;;;19.50;10.63;;;6.20;99.90;;;;;;5025642;28;20224;-72
2022/03/09 06:58:07;;;;;;;18.17;9.40;;;6.20;99.90;;;;;;5024452;28;20228;-73
2022/03/09 07:00:57;;;;;;;20.23;9.80;;;6.20;99.90;;;;;;5026555;28;20233;-72
2022/03/09 07:03:46;;;;;;;17.47;8.63;;;6.30;99.90;;;;;;5028960;28;20254;-72
2022/03/09 07:06:34;;;;;;;20.93;9.53;;;6.30;99.90;;;;;;5025432;28;20683;-72
2022/03/09 07:09:23;;;;;;;19.63;9.07;;;6.30;99.90;;;;;;5035706;28;20576;-70
2022/03/09 07:12:13;;;;;;;19.37;8.87;;;6.30;99.90;;;;;;5026533;28;20228;-72
2022/03/09 07:15:02;;;;;;;15.57;8.33;;;6.30;99.90;;;;;;5030103;28;20231;-71
2022/03/09 07:17:51;;;;;;;16.33;8.53;;;6.50;99.90;;;;;;5037526;28;20888;-70
2022/03/09 07:20:40;;;;;;;15.87;8.33;;;6.50;99.90;;;;;;5027927;28;20317;-72
2022/03/09 07:23:29;;;;;;;19.30;8.93;;;6.60;99.90;;;;;;5037722;28;20381;-71
2022/03/09 07:26:18;;;;;;;17.87;8.50;;;6.70;99.90;;;;;;5028271;28;20232;-71
2022/03/09 07:29:08;;;;;;;18.93;8.17;;;6.60;99.90;;;;;;5039151;28;20735;-70
2022/03/09 07:31:57;;;;;;;14.67;7.07;;;6.50;99.90;;;;;;5025232;28;20301;-71
2022/03/09 07:34:46;;;;;;;16.40;7.83;;;6.60;99.90;;;;;;5026039;28;20241;-72
2022/03/09 07:37:35;;;;;;;16.87;7.73;;;6.60;99.90;;;;;;5039555;28;20291;-72
2022/03/09 07:40:23;;;;;;;15.57;7.47;;;6.70;99.90;;;;;;5039663;28;20232;-69
2022/03/09 07:43:12;;;;;;;17.97;7.40;;;6.60;99.90;;;;;;5026917;28;20228;-72
2022/03/09 07:46:08;;;;;;;14.80;7.83;;;6.70;99.90;;;;;;5042261;28;20220;-71
2022/03/09 07:48:57;;;;;;;15.47;6.80;;;7.00;99.90;;;;;;5024897;28;20225;-71
2022/03/09 07:51:47;;;;;;;12.27;7.10;;;7.00;99.90;;;;;;5038203;28;20322;-72
2022/03/09 07:54:36;;;;;;;21.53;7.97;;;7.10;99.90;;;;;;5024424;28;20221;-72
2022/03/09 07:57:25;;;;;;;13.63;8.23;;;7.20;99.90;;;;;;5027178;28;20224;-71
2022/03/09 08:00:15;;;;;;;13.53;7.37;;;7.30;99.90;;;;;;5035523;28;20221;-73
2022/03/09 08:03:05;;;;;;;14.20;7.17;;;7.40;99.90;;;;;;5026733;28;20568;-73
2022/03/09 08:06:14;;;;;;;11.03;6.73;;;7.50;99.90;;;;;;5019447;28;20304;-72
2022/03/09 08:09:02;;;;;;;14.83;6.33;;;7.60;98.80;;;;;;5027023;28;20600;-72
2022/03/09 08:11:51;;;;;;;14.93;6.90;;;7.60;99.80;;;;;;5024267;28;20263;-72
2022/03/09 08:14:40;;;;;;;12.47;6.30;;;7.70;97.40;;;;;;5037098;28;20699;-72
2022/03/09 08:17:31;;;;;;;12.07;6.20;;;7.10;96.60;;;;;;5037814;28;20648;-72
2022/03/09 08:20:21;;;;;;;15.70;6.33;;;6.90;98.10;;;;;;5028503;28;20958;-71
2022/03/09 08:23:10;;;;;;;12.60;6.27;;;7.00;97.80;;;;;;5021406;28;20533;-74
2022/03/09 08:25:59;;;;;;;11.67;6.67;;;6.90;99.30;;;;;;5020094;28;20279;-74
2022/03/09 08:28:48;;;;;;;14.77;6.77;;;7.00;99.10;;;;;;5036315;28;20225;-74
2022/03/09 08:31:37;;;;;;;13.33;6.50;;;7.20;99.10;;;;;;5032763;28;20220;-73
2022/03/09 08:34:33;;;;;;;13.10;5.57;;;7.10;97.80;;;;;;5034767;28;20240;-74
2022/03/09 08:37:23;;;;;;;8.63;5.10;;;7.10;97.40;;;;;;5024929;28;20225;-73
2022/03/09 08:40:12;;;;;;;10.80;5.63;;;7.20;97.00;;;;;;5020029;28;20282;-72
2022/03/09 08:43:01;;;;;;;10.90;5.10;;;7.00;97.50;;;;;;5039665;28;20239;-72
2022/03/09 08:45:50;;;;;;;10.50;4.70;;;7.10;97.10;;;;;;5030657;28;20263;-71
2022/03/09 08:48:39;;;;;;;11.57;5.20;;;7.20;95.90;;;;;;5041937;28;20292;-72
2022/03/09 08:51:28;;;;;;;9.87;5.13;;;7.20;96.20;;;;;;5041314;28;20750;-71
2022/03/09 08:54:18;;;;;;;12.17;4.80;;;7.30;96.40;;;;;;5025394;28;20224;-70
2022/03/09 08:57:07;;;;;;;10.07;4.57;;;7.40;94.70;;;;;;5038670;28;20229;-71
2022/03/09 08:59:57;;;;;;;8.30;4.20;;;7.50;95.20;;;;;;5028425;28;20246;-71
2022/03/09 09:02:46;;;;;;;7.93;3.50;;;7.50;93.50;;;;;;5036550;28;21096;-72
2022/03/09 09:05:35;;;;;;;11.97;4.10;;;7.60;93.10;;;;;;5040621;28;20625;-71
2022/03/09 09:08:24;;;;;;;9.97;3.97;;;7.60;92.60;;;;;;5034297;28;20290;-72
2022/03/09 09:11:14;;;;;;;6.03;3.77;;;7.60;92.20;;;;;;5024866;28;20234;-71
2022/03/09 09:14:03;;;;;;;9.23;3.93;;;7.70;92.40;;;;;;5024306;28;20221;-72
2022/03/09 09:16:52;;;;;;;6.83;3.70;;;8.00;92.00;;;;;;5018926;28;20245;-71
2022/03/09 09:19:41;;;;;;;11.10;4.33;;;7.90;91.00;;;;;;5032927;28;20453;-72
2022/03/09 09:22:30;;;;;;;9.73;3.63;;;7.90;91.30;;;;;;5023738;28;20239;-74
2022/03/09 09:25:38;;;;;;;7.93;3.73;;;8.10;90.60;;;;;;5033862;28;20230;-73
2022/03/09 09:28:28;;;;;;;6.63;3.43;;;8.10;90.80;;;;;;5035609;28;20233;-74
2022/03/09 09:31:17;;;;;;;11.23;3.37;;;8.20;90.10;;;;;;5020870;28;20228;-74
2022/03/09 09:34:07;;;;;;;6.57;3.10;;;8.40;90.30;;;;;;5021670;28;20245;-72
2022/03/09 09:36:56;;;;;;;6.77;3.70;;;8.10;89.40;;;;;;5023178;28;20217;-72
2022/03/09 09:39:45;;;;;;;6.13;3.20;;;7.90;90.60;;;;;;5017398;28;20252;-72
2022/03/09 09:42:35;;;;;;;6.30;3.73;;;8.00;90.30;;;;;;5024862;28;20222;-72
2022/03/09 09:45:43;;;;;;;5.77;3.10;;;7.90;90.80;;;;;;5022752;28;20232;-72
2022/03/09 09:48:32;;;;;;;9.60;3.80;;;7.80;90.60;;;;;;5024850;28;20229;-72
2022/03/09 09:51:24;;;;;;;8.07;3.90;;;7.80;91.50;;;;;;5022703;28;20237;-72
2022/03/09 09:54:15;;;;;;;7.30;3.50;;;7.60;91.90;;;;;;5036992;28;20232;-73
2022/03/09 09:57:05;;;;;;;6.20;3.40;;;7.60;92.10;;;;;;5023958;28;20224;-71
2022/03/09 09:59:54;;;;;;;7.40;3.63;;;7.70;91.30;;;;;;5031996;28;20228;-73
2022/03/09 10:02:45;;;;;;;8.63;3.73;;;8.10;90.40;;;;;;5030585;28;20231;-76
2022/03/09 10:05:33;;;;;;;10.00;3.23;;;8.00;91.10;;;;;;5021828;28;20217;-77
2022/03/09 10:08:22;;;;;;;7.67;3.60;;;7.90;90.60;;;;;;5033388;28;20309;-79
2022/03/09 10:11:11;;;;;;;7.00;3.40;;;8.10;90.00;;;;;;5020811;28;20604;-79
2022/03/09 10:14:00;;;;;;;7.27;3.90;;;8.00;90.00;;;;;;5005598;28;20227;-76
2022/03/09 10:17:02;;;;;;;9.27;3.70;;;8.10;89.80;;;;;;5005201;28;20313;-72
2022/03/09 10:19:55;;;;;;;11.60;3.93;;;8.50;89.30;;;;;;5030785;28;20231;-71
2022/03/09 10:22:45;;;;;;;6.67;3.13;;;8.50;88.40;;;;;;5031670;28;20223;-76
2022/03/09 10:25:40;;;;;;;7.73;3.70;;;8.60;87.70;;;;;;5031122;28;20232;-73
2022/03/09 10:28:31;;;;;;;7.67;3.57;;;8.60;89.00;;;;;;5015029;28;20230;-73
2022/03/09 10:31:37;;;;;;;7.27;3.50;;;8.70;87.50;;;;;;5033792;28;20253;-70
2022/03/09 10:34:29;;;;;;;7.87;4.70;;;8.50;86.40;;;;;;5020179;28;20237;-71
2022/03/09 10:37:19;;;;;;;7.30;3.63;;;8.70;87.60;;;;;;5020037;28;20232;-73
2022/03/09 10:40:13;;;;;;;6.43;3.60;;;8.40;87.60;;;;;;5022833;28;20214;-73
2022/03/09 10:43:11;;;;;;;8.17;3.60;;;8.60;89.30;;;;;;5036563;28;20785;-72
2022/03/09 10:46:06;;;;;;;5.67;3.40;;;8.60;88.20;;;;;;5028116;28;20596;-72
2022/03/09 10:48:58;;;;;;;7.00;3.63;;;8.30;90.10;;;;;;5039994;28;20305;-72
2022/03/09 10:51:49;;;;;;;9.03;4.13;;;8.30;89.90;;;;;;5038503;28;20229;-72
2022/03/09 10:54:39;;;;;;;6.67;4.07;;;8.40;90.20;;;;;;5035306;28;20242;-72
2022/03/09 10:57:31;;;;;;;5.30;3.43;;;8.60;89.70;;;;;;5021377;28;20235;-72
2022/03/09 11:00:41;;;;;;;7.37;3.77;;;8.70;90.10;;;;;;5032536;28;20267;-72
2022/03/09 11:03:35;;;;;;;10.47;4.27;;;8.60;89.80;;;;;;5037264;28;20235;-73
2022/03/09 11:06:28;;;;;;;5.60;3.87;;;8.70;89.30;;;;;;5020883;28;20215;-71
2022/03/09 11:09:19;;;;;;;7.57;3.40;;;8.90;89.70;;;;;;5028830;28;20290;-72
2022/03/09 11:12:10;;;;;;;8.60;4.20;;;8.90;89.40;;;;;;5025599;28;20235;-73
2022/03/09 11:14:59;;;;;;;7.13;3.67;;;8.70;90.00;;;;;;5031025;28;20916;-73
2022/03/09 11:17:54;;;;;;;7.73;3.60;;;8.70;89.30;;;;;;5015330;28;20228;-72
2022/03/09 11:20:47;;;;;;;6.90;3.60;;;8.60;90.40;;;;;;5037481;28;20244;-73
2022/03/09 11:23:40;;;;;;;6.67;3.90;;;8.70;91.30;;;;;;5033533;28;20736;-72
2022/03/09 11:26:30;;;;;;;6.60;3.90;;;8.70;90.80;;;;;;5033033;28;20709;-71
2022/03/09 11:29:33;;;;;;;6.03;3.70;;;8.60;90.90;;;;;;5023588;28;20313;-72
2022/03/09 11:32:34;;;;;;;7.80;4.33;;;8.40;91.70;;;;;;5037757;28;20239;-72
2022/03/09 11:35:48;;;;;;;10.03;4.23;;;8.50;91.90;;;;;;5022946;28;20280;-73
2022/03/09 11:38:43;;;;;;;9.47;4.23;;;8.50;93.00;;;;;;5016034;28;20574;-72
2022/03/09 11:41:36;;;;;;;7.27;3.80;;;8.40;92.60;;;;;;5039307;28;20420;-73
2022/03/09 11:44:30;;;;;;;8.40;4.37;;;8.40;93.20;;;;;;5036119;28;20226;-72
2022/03/09 11:47:19;;;;;;;7.80;4.27;;;8.50;93.20;;;;;;5026373;28;20730;-72
2022/03/09 11:50:09;;;;;;;7.20;3.97;;;8.10;95.80;;;;;;5016519;28;21111;-71
2022/03/09 11:53:03;;;;;;;13.57;4.70;;;8.10;97.10;;;;;;5036588;28;20225;-71
2022/03/09 11:56:31;;;;;;;9.53;4.73;;;8.10;98.70;;;;;;5023430;28;20222;-71
2022/03/09 11:59:22;;;;;;;8.80;5.03;;;8.10;99.70;;;;;;5022996;28;20231;-71
2022/03/09 12:02:17;;;;;;;8.77;4.60;;;7.90;99.90;;;;;;5034145;28;20228;-71
2022/03/09 12:05:10;;;;;;;8.07;4.50;;;8.10;99.90;;;;;;5039041;28;20272;-70
2022/03/09 12:07:59;;;;;;;13.43;4.77;;;8.30;99.90;;;;;;5024031;28;20377;-70
2022/03/09 12:10:50;;;;;;;7.53;4.07;;;8.00;99.90;;;;;;5024241;28;20221;-69
2022/03/09 12:13:46;;;;;;;10.50;4.80;;;7.90;99.90;;;;;;5040478;28;20225;-70
2022/03/09 12:17:01;;;;;;;8.63;4.10;;;8.00;99.90;;;;;;5021002;28;20221;-67
2022/03/09 12:20:19;;;;;;;8.97;4.30;;;8.00;99.90;;;;;;5024327;28;20227;-71
2022/03/09 12:23:10;;;;;;;8.77;4.73;;;7.80;99.90;;;;;;5014488;28;20312;-65
2022/03/09 12:26:01;;;;;;;10.40;5.20;;;7.80;99.90;;;;;;5014518;28;20344;-69
2022/03/09 12:28:50;;;;;;;8.67;4.40;;;7.70;99.90;;;;;;5024591;28;20689;-71
2022/03/09 12:31:39;;;;;;;9.20;4.90;;;7.80;99.90;;;;;;5019189;28;20225;-71
2022/03/09 12:34:30;;;;;;;10.70;5.20;;;7.50;99.90;;;;;;5003582;28;20221;-70
2022/03/09 12:37:24;;;;;;;9.30;5.30;;;7.40;99.90;;;;;;5019955;28;20227;-69
2022/03/09 12:40:13;;;;;;;9.40;5.13;;;7.50;99.90;;;;;;5006827;28;20605;-71
2022/03/09 12:43:02;;;;;;;9.40;5.70;;;7.60;99.90;;;;;;5019734;28;20736;-71
2022/03/09 12:45:52;;;;;;;9.47;5.40;;;7.60;99.90;;;;;;5009906;28;20218;-71
2022/03/09 12:48:41;;;;;;;11.23;5.73;;;7.60;99.90;;;;;;5017274;28;20231;-71
2022/03/09 12:51:33;;;;;;;10.43;5.53;;;7.70;99.90;;;;;;5018803;28;20306;-70
2022/03/09 12:54:43;;;;;;;9.67;5.40;;;7.70;99.90;;;;;;5030728;28;20242;-70
2022/03/09 12:57:32;;;;;;;11.20;6.20;;;7.90;99.90;;;;;;5025326;28;20233;-70
2022/03/09 13:00:23;;;;;;;11.33;5.70;;;7.70;99.90;;;;;;5037722;28;20214;-72
2022/03/09 13:03:12;;;;;;;12.07;6.17;;;7.60;99.90;;;;;;5023847;28;20264;-71
2022/03/09 13:06:05;;;;;;;10.13;6.20;;;7.70;99.90;;;;;;5023703;28;20246;-71
2022/03/09 13:08:54;;;;;;;11.83;6.27;;;7.60;99.90;;;;;;5035483;28;20305;-69
2022/03/09 13:11:44;;;;;;;10.83;6.43;;;7.70;99.90;;;;;;5025989;28;20692;-69
2022/03/09 13:14:33;;;;;;;13.00;6.73;;;7.80;99.90;;;;;;5022217;28;20980;-70
2022/03/09 13:17:23;;;;;;;12.80;6.37;;;7.80;99.90;;;;;;5022869;28;20695;-71
2022/03/09 13:20:13;;;;;;;18.23;6.77;;;7.90;99.90;;;;;;5035561;28;20260;-72
2022/03/09 13:23:01;;;;;;;12.80;6.90;;;7.70;99.90;;;;;;5015331;28;20353;-70
2022/03/09 13:25:50;;;;;;;9.93;6.00;;;7.80;99.90;;;;;;5018261;28;20225;-71
2022/03/09 13:28:41;;;;;;;11.33;6.70;;;7.90;99.90;;;;;;5036082;28;20224;-70
2022/03/09 13:31:42;;;;;;;13.73;6.23;;;7.90;99.90;;;;;;5023516;28;20304;-72
2022/03/09 13:34:34;;;;;;;12.67;7.17;;;7.70;99.90;;;;;;5021855;28;20304;-71
2022/03/09 13:37:33;;;;;;;11.10;6.60;;;7.90;99.90;;;;;;5023762;28;20221;-71
2022/03/09 13:40:22;;;;;;;12.50;6.57;;;7.90;99.90;;;;;;5038836;28;21402;-71
2022/03/09 13:43:11;;;;;;;14.80;8.17;;;7.90;99.90;;;;;;5036800;28;20241;-72
2022/03/09 13:46:13;;;;;;;11.60;7.40;;;7.70;99.90;;;;;;5025523;28;20213;-72
2022/03/09 13:49:11;;;;;;;13.23;6.57;;;7.60;99.90;;;;;;5021627;28;20235;-70
2022/03/09 13:52:00;;;;;;;12.60;6.97;;;7.70;99.90;;;;;;5033588;28;20232;-71
2022/03/09 13:54:52;;;;;;;12.80;6.60;;;7.60;99.90;;;;;;5024216;28;20382;-71
2022/03/09 13:57:41;;;;;;;11.33;5.80;;;7.60;99.90;;;;;;5037220;28;20221;-71
2022/03/09 14:00:33;;;;;;;9.47;5.57;;;7.60;99.90;;;;;;5021491;28;20229;-69
2022/03/09 14:03:24;;;;;;;11.77;5.97;;;7.60;99.90;;;;;;5038404;28;20217;-70
2022/03/09 14:06:15;;;;;;;13.10;6.10;;;7.60;99.90;;;;;;5042013;28;20363;-71
2022/03/09 14:09:13;;;;;;;11.63;6.10;;;7.50;99.90;;;;;;5043040;28;20255;-71
2022/03/09 14:12:13;;;;;;;10.27;6.07;;;7.40;99.90;;;;;;5026161;28;20224;-71
2022/03/09 14:15:03;;;;;;;10.30;5.30;;;7.40;99.90;;;;;;5041779;28;20225;-70
2022/03/09 14:17:51;;;;;;;15.13;6.13;;;7.20;99.90;;;;;;5040464;28;20228;-70
2022/03/09 14:20:41;;;;;;;12.70;6.23;;;7.00;99.90;;;;;;5029084;28;20221;-71
2022/03/09 14:23:30;;;;;;;11.97;6.83;;;7.00;99.90;;;;;;5043791;28;20225;-75
2022/03/09 14:26:19;;;;;;;12.37;6.60;;;6.80;99.90;;;;;;5028733;28;20225;-73
2022/03/09 14:29:09;;;;;;;15.17;7.07;;;6.80;99.90;;;;;;5030276;28;20224;-75
2022/03/09 14:31:57;;;;;;;14.53;7.30;;;6.70;99.90;;;;;;5044022;28;20418;-74
2022/03/09 14:34:46;;;;;;;12.53;7.23;;;6.60;99.90;;;;;;5038482;28;20229;-74
2022/03/09 14:37:37;;;;;;;18.47;8.00;;;6.60;99.90;;;;;;5042551;28;20236;-73
2022/03/09 14:40:27;;;;;;;20.80;8.10;;;6.70;99.90;;;;;;5043627;28;20308;-72
2022/03/09 14:43:16;;;;;;;15.80;8.50;;;6.50;99.90;;;;;;5046966;28;20216;-73
2022/03/09 14:46:06;;;;;;;15.03;9.03;;;6.40;99.90;;;;;;5039316;28;20300;-72
2022/03/09 14:48:55;;;;;;;14.63;8.73;;;6.30;99.90;;;;;;5043637;28;20651;-75